Time;durP1;ratioP1;P1;durP2;ratioP2;P2;SDS_P1;SDS_P2;PMS_P1;PMS_P2;Temp;Humidity;BMP_temperature;BMP_pressure;BME280_temperature;BME280_humidity;BME280_pressure;Samples;Min_cycle;Max_cycle;Signal;HPM_P1;HPM_P2
2021/04/06 00:02:14;;;;;;;16.03;3.50;;;3.10;97.40;;;;;;4360313;33;20160;-64
2021/04/06 00:04:44;;;;;;;21.23;4.87;;;3.20;97.10;;;;;;4361079;33;20207;-63
2021/04/06 00:07:14;;;;;;;25.80;4.70;;;3.20;97.50;;;;;;4360636;33;20227;-62
2021/04/06 00:09:43;;;;;;;20.57;4.13;;;3.20;97.30;;;;;;4366199;32;20220;-62
2021/04/06 00:12:15;;;;;;;16.27;4.77;;;3.10;98.00;;;;;;4375106;32;20198;-62
2021/04/06 00:14:43;;;;;;;29.10;4.20;;;2.90;98.90;;;;;;4371107;32;20173;-62
2021/04/06 00:17:13;;;;;;;20.20;4.63;;;2.90;99.10;;;;;;4365880;32;20550;-63
2021/04/06 00:19:45;;;;;;;26.03;4.87;;;2.80;99.40;;;;;;4362307;32;20235;-63
2021/04/06 00:22:15;;;;;;;20.40;4.70;;;2.80;99.30;;;;;;4369818;32;20171;-62
2021/04/06 00:24:47;;;;;;;23.53;4.80;;;2.70;99.20;;;;;;4362723;32;20149;-65
2021/04/06 00:27:17;;;;;;;27.57;3.60;;;2.70;99.10;;;;;;4374830;32;20458;-61
2021/04/06 00:29:46;;;;;;;18.97;3.90;;;2.70;98.60;;;;;;4366419;32;20214;-65
2021/04/06 00:32:15;;;;;;;18.13;4.30;;;2.60;98.90;;;;;;4361504;32;20220;-62
2021/04/06 00:34:42;;;;;;;22.17;4.20;;;2.60;99.00;;;;;;4368495;32;20156;-67
2021/04/06 00:37:12;;;;;;;24.07;4.20;;;2.50;98.40;;;;;;4372888;32;20152;-62
2021/04/06 00:39:40;;;;;;;17.87;3.87;;;2.50;98.70;;;;;;4375878;32;20144;-62
2021/04/06 00:42:09;;;;;;;21.50;4.10;;;2.40;98.70;;;;;;4370989;32;20236;-62
2021/04/06 00:44:41;;;;;;;29.13;4.43;;;2.50;98.00;;;;;;4373277;32;20600;-61
2021/04/06 00:47:11;;;;;;;17.40;3.17;;;2.50;98.40;;;;;;4362618;32;20207;-61
2021/04/06 00:49:37;;;;;;;18.83;3.43;;;2.60;97.90;;;;;;4370309;32;20251;-64
2021/04/06 00:52:06;;;;;;;20.70;4.53;;;2.70;97.90;;;;;;4366677;32;20315;-64
2021/04/06 00:54:35;;;;;;;21.23;3.77;;;2.80;97.80;;;;;;4374814;32;20222;-63
2021/04/06 00:57:04;;;;;;;26.27;4.37;;;2.80;97.90;;;;;;4363880;32;20225;-62
2021/04/06 00:59:32;;;;;;;22.60;4.90;;;2.80;97.60;;;;;;4369051;32;20202;-62
2021/04/06 01:02:00;;;;;;;18.37;3.03;;;2.90;97.30;;;;;;4366772;32;20148;-62
2021/04/06 01:04:28;;;;;;;17.13;3.93;;;2.90;97.50;;;;;;4363635;32;20181;-63
2021/04/06 01:06:57;;;;;;;16.70;3.80;;;3.00;97.50;;;;;;4367556;32;20212;-64
2021/04/06 01:09:38;;;;;;;23.97;4.07;;;3.10;97.30;;;;;;4374926;32;20234;-61
2021/04/06 01:12:08;;;;;;;12.93;3.03;;;3.20;96.80;;;;;;4372768;32;20149;-64
2021/04/06 01:14:36;;;;;;;16.23;3.13;;;3.10;96.10;;;;;;4368667;32;20184;-64
2021/04/06 01:17:04;;;;;;;16.30;3.00;;;3.10;95.30;;;;;;4371133;32;20171;-65
2021/04/06 01:19:31;;;;;;;20.37;4.43;;;3.00;95.90;;;;;;4371863;32;20172;-62
2021/04/06 01:21:59;;;;;;;19.03;3.53;;;2.90;95.90;;;;;;4360975;32;20188;-63
2021/04/06 01:24:27;;;;;;;20.17;4.27;;;2.80;96.40;;;;;;4363291;32;20167;-62
2021/04/06 01:26:53;;;;;;;22.60;3.90;;;3.00;95.90;;;;;;4369200;32;20160;-61
2021/04/06 01:29:19;;;;;;;17.00;4.00;;;2.90;96.40;;;;;;4371524;32;20480;-62
2021/04/06 01:31:46;;;;;;;21.43;4.03;;;2.70;96.70;;;;;;4373617;32;20210;-60
2021/04/06 01:34:13;;;;;;;18.40;3.70;;;2.90;96.40;;;;;;4371071;32;20164;-61
2021/04/06 01:36:39;;;;;;;24.03;4.80;;;2.90;96.40;;;;;;4364519;32;20220;-62
2021/04/06 01:39:06;;;;;;;22.77;4.00;;;2.90;96.30;;;;;;4373602;32;20204;-62
2021/04/06 01:41:34;;;;;;;20.63;3.50;;;2.80;96.60;;;;;;4364166;32;20589;-63
2021/04/06 01:44:01;;;;;;;18.87;4.27;;;2.70;97.00;;;;;;4366046;32;20228;-61
2021/04/06 01:46:38;;;;;;;13.67;3.67;;;2.70;96.70;;;;;;4361596;32;20211;-61
2021/04/06 01:49:06;;;;;;;21.17;3.60;;;2.60;96.60;;;;;;4373402;32;20152;-61
2021/04/06 01:51:34;;;;;;;14.27;3.20;;;2.50;96.60;;;;;;4374666;32;20236;-62
2021/04/06 01:54:05;;;;;;;17.17;3.40;;;2.50;97.00;;;;;;4374195;32;20559;-63
2021/04/06 01:56:38;;;;;;;13.90;2.90;;;2.50;95.90;;;;;;4374153;32;20457;-62
2021/04/06 01:59:08;;;;;;;7.73;1.80;;;2.40;95.50;;;;;;4368830;32;20187;-61
2021/04/06 02:01:36;;;;;;;11.10;2.43;;;2.40;95.00;;;;;;4368650;32;20170;-61
2021/04/06 02:04:05;;;;;;;11.00;2.47;;;2.30;95.00;;;;;;4372462;32;20611;-62
2021/04/06 02:06:37;;;;;;;14.93;2.70;;;2.30;94.80;;;;;;4371846;32;20167;-62
2021/04/06 02:09:07;;;;;;;9.23;2.53;;;2.20;95.10;;;;;;4363618;32;20160;-63
2021/04/06 02:11:36;;;;;;;10.97;2.67;;;2.10;95.10;;;;;;4356224;33;20169;-63
2021/04/06 02:14:09;;;;;;;12.83;2.83;;;2.20;95.30;;;;;;4348957;33;20200;-60
2021/04/06 02:16:47;;;;;;;14.77;2.90;;;2.30;94.40;;;;;;4345436;33;20157;-61
2021/04/06 02:19:28;;;;;;;14.13;3.10;;;2.20;94.20;;;;;;4349936;33;20171;-62
2021/04/06 02:21:58;;;;;;;12.80;2.93;;;2.20;94.40;;;;;;4350992;33;20293;-61
2021/04/06 02:24:26;;;;;;;14.53;3.10;;;2.20;94.40;;;;;;4358695;33;20219;-61
2021/04/06 02:26:59;;;;;;;12.33;2.70;;;2.10;94.80;;;;;;4350485;33;20186;-62
2021/04/06 02:29:25;;;;;;;12.43;2.30;;;2.00;95.10;;;;;;4347123;33;20514;-61
2021/04/06 02:31:52;;;;;;;12.90;2.93;;;1.90;95.50;;;;;;4353276;33;20224;-62
2021/04/06 02:34:19;;;;;;;12.93;2.50;;;2.00;95.50;;;;;;4358748;33;20530;-61
2021/04/06 02:36:48;;;;;;;17.10;3.13;;;2.00;95.70;;;;;;4359386;33;20216;-62
2021/04/06 02:39:14;;;;;;;9.50;2.30;;;2.10;95.80;;;;;;4358400;33;20215;-61
2021/04/06 02:41:40;;;;;;;15.47;3.10;;;2.20;95.80;;;;;;4358724;33;20157;-62
2021/04/06 02:44:08;;;;;;;12.30;2.53;;;2.40;95.30;;;;;;4359088;33;20251;-62
2021/04/06 02:46:36;;;;;;;8.50;1.53;;;2.40;97.10;;;;;;4352706;33;20295;-61
2021/04/06 02:49:03;;;;;;;11.63;1.90;;;2.20;99.10;;;;;;4348728;33;20168;-60
2021/04/06 02:51:29;;;;;;;10.53;1.80;;;2.10;99.40;;;;;;4355944;33;20168;-62
2021/04/06 02:53:56;;;;;;;13.33;2.60;;;2.00;99.50;;;;;;4358916;33;20212;-61
2021/04/06 02:56:32;;;;;;;11.33;3.47;;;2.00;99.40;;;;;;4355800;33;20228;-60
2021/04/06 02:59:16;;;;;;;13.33;2.10;;;2.00;99.80;;;;;;4358561;32;20194;-62
2021/04/06 03:01:43;;;;;;;13.90;2.80;;;2.10;99.90;;;;;;4353999;33;20224;-62
2021/04/06 03:04:21;;;;;;;8.63;2.03;;;2.00;99.80;;;;;;4352191;32;20215;-61
2021/04/06 03:06:50;;;;;;;8.40;2.17;;;1.90;99.90;;;;;;4355682;33;20225;-63
2021/04/06 03:09:18;;;;;;;7.20;2.37;;;1.80;99.90;;;;;;4360537;33;20168;-61
2021/04/06 03:11:46;;;;;;;13.10;2.43;;;1.90;99.90;;;;;;4357342;32;20273;-61
2021/04/06 03:14:12;;;;;;;10.13;2.03;;;1.80;99.90;;;;;;4354859;33;20228;-61
2021/04/06 03:16:40;;;;;;;9.80;2.07;;;1.70;99.90;;;;;;4360755;33;20168;-61
2021/04/06 03:19:08;;;;;;;10.40;1.83;;;1.60;99.90;;;;;;4356494;33;20199;-62
2021/04/06 03:21:35;;;;;;;9.67;2.23;;;1.50;99.90;;;;;;4359895;33;20263;-62
2021/04/06 03:24:02;;;;;;;15.67;2.23;;;1.50;99.90;;;;;;4353979;32;20645;-61
2021/04/06 03:26:30;;;;;;;7.40;1.87;;;1.50;99.90;;;;;;4360973;33;20566;-60
2021/04/06 03:28:59;;;;;;;11.73;2.20;;;1.50;99.90;;;;;;4354597;32;20569;-63
2021/04/06 03:31:27;;;;;;;9.03;2.03;;;1.50;99.90;;;;;;4358279;33;20153;-62
2021/04/06 03:33:56;;;;;;;11.33;2.50;;;1.40;99.90;;;;;;4359493;32;20214;-61
2021/04/06 03:36:25;;;;;;;14.80;2.30;;;1.50;99.90;;;;;;4360890;33;20184;-61
2021/04/06 03:38:53;;;;;;;8.57;2.23;;;1.40;99.90;;;;;;4355814;33;20209;-61
2021/04/06 03:41:23;;;;;;;11.43;1.80;;;1.40;99.80;;;;;;4359568;32;20148;-61
2021/04/06 03:43:50;;;;;;;9.90;2.17;;;1.40;99.60;;;;;;4357969;32;20578;-61
2021/04/06 03:46:23;;;;;;;11.73;2.30;;;1.30;99.50;;;;;;4357357;33;20270;-63
2021/04/06 03:48:50;;;;;;;9.57;2.37;;;1.40;99.30;;;;;;4358809;33;20149;-60
2021/04/06 03:51:26;;;;;;;9.57;2.57;;;1.30;99.30;;;;;;4357409;32;20462;-61
2021/04/06 03:53:56;;;;;;;8.60;2.93;;;1.30;99.40;;;;;;4357007;32;20575;-61
2021/04/06 03:56:29;;;;;;;13.40;1.87;;;1.40;99.20;;;;;;4359723;32;20149;-62
2021/04/06 03:58:58;;;;;;;10.40;1.87;;;1.60;98.50;;;;;;4353842;33;20161;-61
2021/04/06 04:01:28;;;;;;;21.20;2.93;;;1.70;98.50;;;;;;4362219;32;20149;-61
2021/04/06 04:03:55;;;;;;;13.90;2.53;;;1.80;98.20;;;;;;4350091;33;20200;-61
2021/04/06 04:06:26;;;;;;;14.73;2.83;;;1.90;98.20;;;;;;4359061;33;20167;-62
2021/04/06 04:08:53;;;;;;;14.10;2.57;;;2.00;98.30;;;;;;4358375;32;20179;-62
2021/04/06 04:11:23;;;;;;;11.17;2.17;;;1.90;98.30;;;;;;4359805;33;20168;-62
2021/04/06 04:13:49;;;;;;;13.37;3.00;;;1.90;98.50;;;;;;4357493;33;20203;-61
2021/04/06 04:16:16;;;;;;;13.70;2.23;;;1.80;98.50;;;;;;4360807;32;20230;-62
2021/04/06 04:18:43;;;;;;;17.40;2.30;;;1.70;98.80;;;;;;4359925;33;20207;-62
2021/04/06 04:21:10;;;;;;;8.60;2.00;;;1.60;99.00;;;;;;4360567;33;20172;-60
2021/04/06 04:23:37;;;;;;;13.47;2.67;;;1.60;99.20;;;;;;4359283;32;20589;-62
2021/04/06 04:26:03;;;;;;;11.00;2.30;;;1.60;99.40;;;;;;4356747;33;20223;-62
2021/04/06 04:28:30;;;;;;;13.17;2.47;;;1.60;99.40;;;;;;4352986;32;20235;-61
2021/04/06 04:30:59;;;;;;;7.57;2.27;;;1.60;99.60;;;;;;4359611;32;20213;-61
2021/04/06 04:33:25;;;;;;;9.90;2.30;;;1.70;99.40;;;;;;4352902;33;20153;-62
2021/04/06 04:35:51;;;;;;;12.60;2.77;;;1.80;99.40;;;;;;4353185;32;20333;-62
2021/04/06 04:38:18;;;;;;;13.57;3.40;;;1.90;99.10;;;;;;4351525;33;20442;-61
2021/04/06 04:40:45;;;;;;;14.63;2.40;;;2.00;98.80;;;;;;4361348;32;20578;-61
2021/04/06 04:43:12;;;;;;;9.57;2.53;;;2.10;98.30;;;;;;4355994;32;20642;-62
2021/04/06 04:45:39;;;;;;;12.13;2.07;;;2.10;97.80;;;;;;4350701;33;20172;-60
2021/04/06 04:48:06;;;;;;;6.47;1.70;;;2.00;97.90;;;;;;4361138;32;20255;-63
2021/04/06 04:50:33;;;;;;;9.43;1.60;;;1.90;98.10;;;;;;4347152;32;20212;-61
2021/04/06 04:53:00;;;;;;;7.03;1.50;;;1.80;98.20;;;;;;4357672;32;20235;-61
2021/04/06 04:55:26;;;;;;;10.47;1.77;;;1.60;98.40;;;;;;4358722;32;20291;-62
2021/04/06 04:57:55;;;;;;;11.20;1.93;;;1.60;98.60;;;;;;4355787;33;20176;-61
2021/04/06 05:00:22;;;;;;;9.53;1.80;;;1.60;98.80;;;;;;4357927;33;20274;-60
2021/04/06 05:02:49;;;;;;;8.93;2.03;;;1.50;98.60;;;;;;4354162;32;20566;-61
2021/04/06 05:05:17;;;;;;;8.07;1.60;;;1.50;98.60;;;;;;4346200;33;20455;-62
2021/04/06 05:07:44;;;;;;;16.33;2.10;;;1.50;98.60;;;;;;4356600;32;20164;-62
2021/04/06 05:10:15;;;;;;;12.00;1.93;;;1.60;98.60;;;;;;4358130;32;20174;-62
2021/04/06 05:12:42;;;;;;;9.60;2.00;;;1.70;98.50;;;;;;4356013;33;20191;-60
2021/04/06 05:15:10;;;;;;;8.37;1.83;;;1.80;98.30;;;;;;4351178;33;20695;-62
2021/04/06 05:17:37;;;;;;;14.10;3.60;;;1.90;98.40;;;;;;4351979;32;20215;-60
2021/04/06 05:20:05;;;;;;;13.20;2.23;;;2.00;98.20;;;;;;4360313;32;20169;-60
2021/04/06 05:22:31;;;;;;;10.00;2.00;;;2.00;98.20;;;;;;4351070;32;20211;-60
2021/04/06 05:24:59;;;;;;;7.87;2.00;;;2.00;98.10;;;;;;4357656;32;20167;-60
2021/04/06 05:27:26;;;;;;;11.10;2.10;;;2.00;98.10;;;;;;4350169;33;20342;-61
2021/04/06 05:29:56;;;;;;;16.33;2.47;;;2.00;98.20;;;;;;4354190;32;20700;-62
2021/04/06 05:32:23;;;;;;;7.00;2.10;;;2.00;97.90;;;;;;4355387;32;20594;-61
2021/04/06 05:34:49;;;;;;;11.90;2.23;;;1.90;98.00;;;;;;4353881;33;20168;-61
2021/04/06 05:37:16;;;;;;;4.87;1.67;;;2.00;98.30;;;;;;4352554;33;20589;-61
2021/04/06 05:39:47;;;;;;;8.37;2.33;;;2.10;98.20;;;;;;4353832;33;20187;-62
2021/04/06 05:42:14;;;;;;;7.43;1.70;;;2.30;98.00;;;;;;4355603;32;20656;-62
2021/04/06 05:44:42;;;;;;;6.33;1.50;;;2.40;97.30;;;;;;4350233;32;20223;-61
2021/04/06 05:47:15;;;;;;;8.00;1.50;;;2.20;97.60;;;;;;4354333;32;20184;-61
2021/04/06 05:49:42;;;;;;;7.93;1.83;;;2.00;98.10;;;;;;4352925;33;20152;-60
2021/04/06 05:52:09;;;;;;;7.53;1.83;;;1.90;98.80;;;;;;4351943;33;20164;-60
2021/04/06 05:54:35;;;;;;;11.37;1.50;;;1.90;99.20;;;;;;4352611;33;20224;-60
2021/04/06 05:57:02;;;;;;;7.93;1.67;;;2.10;99.50;;;;;;4352075;33;20243;-60
2021/04/06 05:59:28;;;;;;;7.33;1.50;;;2.10;99.40;;;;;;4351986;32;20163;-61
2021/04/06 06:01:54;;;;;;;8.67;1.43;;;2.20;99.30;;;;;;4352117;32;20254;-61
2021/04/06 06:04:20;;;;;;;9.20;2.10;;;2.10;99.10;;;;;;4352013;33;20220;-61
2021/04/06 06:06:54;;;;;;;8.83;1.73;;;2.10;99.20;;;;;;4354879;33;20548;-61
2021/04/06 06:09:30;;;;;;;10.17;1.57;;;2.10;99.00;;;;;;4353822;32;20312;-61
2021/04/06 06:12:01;;;;;;;11.63;1.67;;;2.00;98.90;;;;;;4358003;33;20225;-61
2021/04/06 06:14:32;;;;;;;8.47;1.67;;;2.00;99.00;;;;;;4357070;33;20680;-60
2021/04/06 06:17:11;;;;;;;7.60;1.70;;;2.00;99.20;;;;;;4358044;32;20687;-62
2021/04/06 06:19:37;;;;;;;8.93;2.10;;;2.20;99.10;;;;;;4357974;32;20176;-61
2021/04/06 06:22:11;;;;;;;9.97;2.13;;;2.70;99.00;;;;;;4358375;33;20167;-60
2021/04/06 06:24:40;;;;;;;5.53;1.47;;;3.40;97.60;;;;;;4359056;33;20238;-61
2021/04/06 06:27:34;;;;;;;4.13;1.50;;;3.90;96.30;;;;;;4358526;33;20148;-61
2021/04/06 06:30:18;;;;;;;6.67;1.50;;;3.80;95.10;;;;;;4358097;33;20152;-60
2021/04/06 06:32:44;;;;;;;6.87;1.63;;;3.50;94.90;;;;;;4358010;32;20202;-61
2021/04/06 06:35:14;;;;;;;10.43;2.37;;;3.10;95.70;;;;;;4361827;32;20287;-61
2021/04/06 06:37:42;;;;;;;15.63;2.70;;;3.00;96.10;;;;;;4361114;33;20160;-60
2021/04/06 06:40:09;;;;;;;11.73;2.20;;;2.80;96.40;;;;;;4360978;33;20570;-60
2021/04/06 06:42:38;;;;;;;9.43;2.17;;;2.80;96.90;;;;;;4360358;32;20608;-60
2021/04/06 06:45:21;;;;;;;11.53;2.50;;;3.20;96.50;;;;;;4355237;32;20281;-60
2021/04/06 06:47:54;;;;;;;11.90;2.00;;;3.70;95.10;;;;;;4354470;33;20212;-60
2021/04/06 06:50:21;;;;;;;11.60;1.70;;;3.80;95.00;;;;;;4357496;32;20152;-61
2021/04/06 06:52:53;;;;;;;11.37;2.10;;;3.60;95.00;;;;;;4360946;33;20187;-60
2021/04/06 06:55:20;;;;;;;9.13;2.07;;;3.40;95.50;;;;;;4361248;32;20148;-60
2021/04/06 06:57:48;;;;;;;13.07;1.87;;;3.40;95.80;;;;;;4361331;32;20584;-60
2021/04/06 07:00:17;;;;;;;10.77;1.83;;;3.50;95.70;;;;;;4361476;33;20249;-60
2021/04/06 07:02:44;;;;;;;11.57;2.20;;;3.70;95.90;;;;;;4360318;33;20176;-60
2021/04/06 07:05:19;;;;;;;10.23;1.90;;;3.60;95.50;;;;;;4362945;32;20644;-59
2021/04/06 07:07:58;;;;;;;12.87;2.30;;;3.60;96.10;;;;;;4359894;33;20152;-60
2021/04/06 07:10:27;;;;;;;13.93;2.30;;;3.60;96.10;;;;;;4282842;32;2615633;-59
2021/04/06 07:13:04;;;;;;;11.30;1.80;;;4.10;96.50;;;;;;4361112;32;20524;-60
2021/04/06 07:15:31;;;;;;;11.77;2.40;;;4.60;95.40;;;;;;4360141;32;20607;-61
2021/04/06 07:18:03;;;;;;;10.33;2.13;;;4.50;94.30;;;;;;4360971;33;20212;-60
2021/04/06 07:20:32;;;;;;;3.27;1.33;;;4.20;94.30;;;;;;4358434;32;20152;-60
2021/04/06 07:23:03;;;;;;;4.50;1.10;;;3.80;95.20;;;;;;4359193;32;20582;-61
2021/04/06 07:25:31;;;;;;;8.17;2.57;;;3.50;95.00;;;;;;4361365;32;20167;-61
2021/04/06 07:27:58;;;;;;;2.73;1.10;;;3.20;95.30;;;;;;4361647;32;20208;-58
2021/04/06 07:30:25;;;;;;;5.60;1.30;;;3.20;95.70;;;;;;4361608;32;20165;-60
2021/04/06 07:32:53;;;;;;;5.50;1.27;;;3.40;96.00;;;;;;4358876;32;20184;-58
2021/04/06 07:35:19;;;;;;;5.03;1.07;;;3.80;95.70;;;;;;4361776;32;20228;-61
2021/04/06 07:37:47;;;;;;;4.23;1.17;;;4.40;94.40;;;;;;4356345;32;20173;-60
2021/04/06 07:40:18;;;;;;;4.20;1.27;;;4.70;94.10;;;;;;4356649;32;20168;-60
2021/04/06 07:42:46;;;;;;;6.53;1.40;;;5.20;92.80;;;;;;4356053;32;20200;-60
2021/04/06 07:45:52;;;;;;;5.73;1.90;;;5.30;92.50;;;;;;4354778;32;20269;-61
2021/04/06 07:48:49;;;;;;;7.97;1.93;;;5.90;90.70;;;;;;4316502;33;20157;-60
2021/04/06 07:51:22;;;;;;;5.50;1.10;;;4.70;91.40;;;;;;4299801;33;20154;-61
2021/04/06 07:54:13;;;;;;;5.20;1.10;;;4.00;93.40;;;;;;4295941;33;20602;-61
2021/04/06 07:56:55;;;;;;;4.90;0.80;;;3.60;94.10;;;;;;4255468;33;20615;-60
2021/04/06 07:59:55;;;;;;;4.53;0.83;;;3.40;95.30;;;;;;4254513;33;20159;-60
2021/04/06 08:02:42;;;;;;;1.77;0.87;;;3.20;96.30;;;;;;4213364;34;20164;-61
2021/04/06 08:05:10;;;;;;;2.37;0.83;;;4.10;94.50;;;;;;4214334;34;20160;-59
2021/04/06 08:07:37;;;;;;;5.97;0.90;;;5.60;93.90;;;;;;4214282;34;20586;-60
2021/04/06 08:10:42;;;;;;;3.07;0.83;;;9.10;84.70;;;;;;4223342;33;20159;-61
2021/04/06 08:13:13;;;;;;;3.43;1.10;;;11.00;72.00;;;;;;4226943;33;20155;-59
2021/04/06 08:15:41;;;;;;;3.57;0.97;;;10.60;73.20;;;;;;4228896;33;20694;-61
2021/04/06 08:18:08;;;;;;;4.00;0.50;;;13.40;68.60;;;;;;4226795;33;20597;-60
2021/04/06 08:20:45;;;;;;;2.03;0.70;;;19.80;50.00;;;;;;4227867;33;20552;-59
2021/04/06 08:23:14;;;;;;;3.90;1.03;;;23.20;40.40;;;;;;4226023;33;20214;-58
2021/04/06 08:25:52;;;;;;;3.37;0.90;;;24.70;35.00;;;;;;4259642;33;20178;-60
2021/04/06 08:28:44;;;;;;;4.53;1.20;;;24.70;33.00;;;;;;4272866;33;20265;-61
2021/04/06 08:31:27;;;;;;;3.33;1.10;;;26.10;32.70;;;;;;4239875;33;20155;-60
2021/04/06 08:33:55;;;;;;;7.87;1.37;;;29.70;31.00;;;;;;4282953;33;20165;-60
2021/04/06 08:36:23;;;;;;;4.13;1.30;;;29.20;29.00;;;;;;4294513;33;20162;-60
2021/04/06 08:38:49;;;;;;;5.00;1.50;;;30.00;29.20;;;;;;4296967;33;20299;-60
2021/04/06 08:41:36;;;;;;;7.30;2.07;;;32.30;28.50;;;;;;4294260;33;20338;-61
2021/04/06 08:44:09;;;;;;;3.93;1.77;;;33.30;27.70;;;;;;4292676;33;20607;-61
2021/04/06 08:46:46;;;;;;;6.37;1.73;;;31.80;27.30;;;;;;4294611;33;20633;-61
2021/04/06 08:49:21;;;;;;;4.27;2.13;;;33.60;27.50;;;;;;4294503;33;20169;-60
2021/04/06 08:51:49;;;;;;;8.63;2.27;;;31.60;26.50;;;;;;4305859;33;20169;-61
2021/04/06 08:54:21;;;;;;;5.27;2.40;;;25.70;29.30;;;;;;4304870;33;20241;-60
2021/04/06 08:56:54;;;;;;;8.53;2.97;;;22.60;33.00;;;;;;4307574;33;20241;-60
2021/04/06 08:59:25;;;;;;;8.60;2.40;;;20.70;34.10;;;;;;4304956;33;20159;-59
2021/04/06 09:01:56;;;;;;;6.00;2.10;;;18.00;38.70;;;;;;4306535;33;20233;-59
2021/04/06 09:04:29;;;;;;;7.90;1.80;;;14.00;45.70;;;;;;4303631;33;20176;-60
2021/04/06 09:06:56;;;;;;;7.57;2.07;;;10.70;58.40;;;;;;4315574;33;20176;-60
2021/04/06 09:09:30;;;;;;;13.80;2.57;;;7.80;71.70;;;;;;4354805;32;20462;-61
2021/04/06 09:12:00;;;;;;;9.57;2.13;;;6.20;82.70;;;;;;4365974;32;20214;-59
2021/04/06 09:14:30;;;;;;;9.27;2.10;;;5.50;86.20;;;;;;4369713;32;20179;-60
2021/04/06 09:16:56;;;;;;;7.43;2.40;;;5.40;87.40;;;;;;4368816;32;20168;-59
2021/04/06 09:19:25;;;;;;;6.13;2.10;;;5.90;87.90;;;;;;4369791;32;20223;-59
2021/04/06 09:21:53;;;;;;;11.40;1.93;;;6.00;84.30;;;;;;4367794;32;20303;-60
2021/04/06 09:24:21;;;;;;;10.97;2.83;;;5.90;85.30;;;;;;4367129;32;20239;-62
2021/04/06 09:26:50;;;;;;;9.67;1.83;;;5.60;87.40;;;;;;4368933;32;20673;-61
2021/04/06 09:29:19;;;;;;;7.03;1.83;;;5.60;85.20;;;;;;4364585;32;20203;-60
2021/04/06 09:31:48;;;;;;;9.60;2.00;;;5.70;83.40;;;;;;4368392;32;20238;-62
2021/04/06 09:34:17;;;;;;;9.97;2.33;;;5.90;82.80;;;;;;4368113;32;20242;-61
2021/04/06 09:36:44;;;;;;;3.90;1.63;;;6.50;80.40;;;;;;4369492;32;20161;-61
2021/04/06 09:39:13;;;;;;;9.40;2.13;;;6.70;78.80;;;;;;4366916;32;20519;-64
2021/04/06 09:41:42;;;;;;;6.37;1.10;;;6.90;75.10;;;;;;4368793;32;20204;-64
2021/04/06 09:44:12;;;;;;;5.03;1.50;;;7.10;73.10;;;;;;4366453;32;20161;-64
2021/04/06 09:46:42;;;;;;;3.80;1.40;;;7.50;71.90;;;;;;4366503;32;20183;-63
2021/04/06 09:49:11;;;;;;;7.50;2.03;;;7.60;69.60;;;;;;4365983;32;20203;-65
2021/04/06 09:51:38;;;;;;;7.33;1.70;;;7.50;70.90;;;;;;4366749;32;20221;-61
2021/04/06 09:54:06;;;;;;;6.90;2.40;;;7.30;72.00;;;;;;4366039;32;20226;-60
2021/04/06 09:56:35;;;;;;;6.97;1.57;;;7.20;75.40;;;;;;4365422;32;20238;-64
2021/04/06 09:59:04;;;;;;;6.37;1.73;;;6.20;81.20;;;;;;4366747;32;20168;-64
2021/04/06 10:01:30;;;;;;;11.47;1.50;;;5.60;86.80;;;;;;4367258;32;20242;-64
2021/04/06 10:04:00;;;;;;;6.27;2.00;;;5.30;87.50;;;;;;4365488;32;20157;-63
2021/04/06 10:06:37;;;;;;;6.77;1.43;;;4.70;91.20;;;;;;4370704;32;20179;-61
2021/04/06 10:09:21;;;;;;;8.23;1.90;;;4.40;93.00;;;;;;4366571;32;20266;-62
2021/04/06 10:11:48;;;;;;;4.87;1.50;;;4.10;94.10;;;;;;4366940;32;20243;-61
2021/04/06 10:14:15;;;;;;;5.53;1.30;;;4.20;94.50;;;;;;4369683;32;20216;-62
2021/04/06 10:16:42;;;;;;;6.00;1.70;;;4.60;94.50;;;;;;4365468;32;20279;-61
2021/04/06 10:19:23;;;;;;;6.00;1.60;;;5.00;94.40;;;;;;4370179;32;20539;-63
2021/04/06 10:22:02;;;;;;;5.77;1.47;;;5.20;92.30;;;;;;4368824;32;20160;-60
2021/04/06 10:24:31;;;;;;;7.63;1.27;;;5.40;92.10;;;;;;4365918;32;20635;-65
2021/04/06 10:27:18;;;;;;;3.83;1.50;;;5.60;91.40;;;;;;4365020;32;20207;-62
2021/04/06 10:29:55;;;;;;;5.77;1.67;;;5.90;91.60;;;;;;4372498;32;20207;-61
2021/04/06 10:32:32;;;;;;;5.27;1.60;;;6.30;88.70;;;;;;4367125;32;20210;-63
2021/04/06 10:35:07;;;;;;;4.83;1.53;;;6.40;85.70;;;;;;4362641;32;20199;-63
2021/04/06 10:37:47;;;;;;;8.93;1.90;;;6.10;85.20;;;;;;4365352;32;20168;-60
2021/04/06 10:40:33;;;;;;;11.67;2.80;;;5.80;86.40;;;;;;4367388;32;20202;-62
2021/04/06 10:43:02;;;;;;;7.07;1.83;;;5.70;87.00;;;;;;4363205;32;20214;-63
2021/04/06 10:45:30;;;;;;;3.63;1.30;;;6.10;85.20;;;;;;4366487;32;20231;-64
2021/04/06 10:48:07;;;;;;;6.33;1.83;;;6.30;83.90;;;;;;4365356;32;20223;-61
2021/04/06 10:50:35;;;;;;;5.33;1.07;;;5.80;84.40;;;;;;4366057;32;20539;-61
2021/04/06 10:53:15;;;;;;;6.23;1.40;;;5.70;85.60;;;;;;4365526;32;20176;-64
2021/04/06 10:55:41;;;;;;;5.37;1.53;;;5.70;85.40;;;;;;4365861;32;20512;-61
2021/04/06 10:58:08;;;;;;;3.13;0.90;;;5.90;86.00;;;;;;4367979;32;20215;-61
2021/04/06 11:00:35;;;;;;;8.10;1.27;;;6.30;87.50;;;;;;4369588;32;20487;-62
2021/04/06 11:03:13;;;;;;;2.67;0.93;;;6.40;84.10;;;;;;4369002;32;20164;-65
2021/04/06 11:05:41;;;;;;;3.07;1.17;;;6.70;83.00;;;;;;4364824;32;20215;-65
2021/04/06 11:08:22;;;;;;;7.70;1.50;;;7.00;83.60;;;;;;4368437;32;20161;-61
2021/04/06 11:10:50;;;;;;;4.77;1.10;;;7.90;81.90;;;;;;4365609;32;20228;-59
2021/04/06 11:13:19;;;;;;;3.97;1.50;;;8.00;79.30;;;;;;4366637;32;20269;-60
2021/04/06 11:15:54;;;;;;;5.40;1.47;;;6.90;79.80;;;;;;4364001;32;20625;-60
2021/04/06 11:18:21;;;;;;;8.33;1.70;;;5.80;87.20;;;;;;4368248;32;20172;-62
2021/04/06 11:20:47;;;;;;;10.40;2.37;;;5.00;92.10;;;;;;4368536;32;20229;-62
2021/04/06 11:23:20;;;;;;;7.37;1.80;;;5.30;92.70;;;;;;4371448;32;20157;-62
2021/04/06 11:25:47;;;;;;;6.10;1.80;;;5.60;92.00;;;;;;4369810;32;20227;-61
2021/04/06 11:28:13;;;;;;;10.90;1.77;;;6.40;91.40;;;;;;4370912;32;20182;-60
2021/04/06 11:30:40;;;;;;;10.33;2.17;;;6.70;88.80;;;;;;4368755;32;20168;-62
2021/04/06 11:33:09;;;;;;;8.63;2.13;;;6.10;88.10;;;;;;4367015;32;20232;-60
2021/04/06 11:35:35;;;;;;;11.77;1.83;;;5.60;90.20;;;;;;4367370;32;20335;-61
2021/04/06 11:38:04;;;;;;;8.07;1.70;;;5.10;91.30;;;;;;4370423;32;20169;-60
2021/04/06 11:40:35;;;;;;;5.77;1.53;;;4.90;92.30;;;;;;4370818;32;20263;-59
2021/04/06 11:43:03;;;;;;;6.73;1.50;;;5.30;92.20;;;;;;4367741;32;20561;-64
2021/04/06 11:45:32;;;;;;;8.90;1.57;;;5.70;90.90;;;;;;4369059;32;20581;-60
2021/04/06 11:47:58;;;;;;;2.13;1.20;;;6.00;88.60;;;;;;4371869;32;20221;-62
2021/04/06 11:50:25;;;;;;;6.23;1.30;;;6.00;87.70;;;;;;4367888;32;20616;-61
2021/04/06 11:52:51;;;;;;;2.23;1.00;;;5.70;86.90;;;;;;4367910;32;20168;-60
2021/04/06 11:55:19;;;;;;;2.70;1.10;;;5.70;88.00;;;;;;4369991;32;20191;-60
2021/04/06 11:57:49;;;;;;;3.73;0.90;;;5.60;87.20;;;;;;4370404;32;20164;-60
2021/04/06 12:00:18;;;;;;;4.43;1.00;;;5.70;87.80;;;;;;4369111;32;20195;-61
2021/04/06 12:02:45;;;;;;;3.93;1.10;;;5.70;85.10;;;;;;4367627;32;20188;-60
2021/04/06 12:05:12;;;;;;;5.97;1.60;;;5.90;86.60;;;;;;4367102;32;20168;-64
2021/04/06 12:07:38;;;;;;;4.53;1.33;;;5.90;82.90;;;;;;4368134;32;20191;-62
2021/04/06 12:10:07;;;;;;;6.00;1.37;;;6.10;84.50;;;;;;4366535;32;20214;-61
2021/04/06 12:12:37;;;;;;;2.97;0.97;;;6.70;85.20;;;;;;4369155;32;20157;-61
2021/04/06 12:15:04;;;;;;;9.73;1.70;;;6.80;78.30;;;;;;4370053;32;20183;-63
2021/04/06 12:17:33;;;;;;;5.13;1.43;;;6.90;78.20;;;;;;4367576;32;20256;-59
2021/04/06 12:19:59;;;;;;;6.27;2.00;;;6.60;80.90;;;;;;4369359;32;20202;-63
2021/04/06 12:22:26;;;;;;;9.53;1.97;;;5.20;83.80;;;;;;4368900;32;20176;-61
2021/04/06 12:24:52;;;;;;;4.47;1.00;;;4.80;86.70;;;;;;4370012;32;20494;-61
2021/04/06 12:27:19;;;;;;;5.37;1.93;;;4.70;86.60;;;;;;4374636;32;20458;-61
2021/04/06 12:29:45;;;;;;;10.17;1.70;;;4.20;90.60;;;;;;4366979;32;20220;-62
2021/04/06 12:32:12;;;;;;;9.73;1.90;;;3.80;92.20;;;;;;4363560;32;20152;-62
2021/04/06 12:34:42;;;;;;;9.60;1.60;;;3.70;92.90;;;;;;4369413;32;20228;-60
2021/04/06 12:37:09;;;;;;;8.07;1.50;;;3.70;93.00;;;;;;4367211;32;20175;-62
2021/04/06 12:39:37;;;;;;;10.60;2.00;;;3.90;93.10;;;;;;4375131;32;20206;-61
2021/04/06 12:42:04;;;;;;;6.77;2.33;;;4.40;93.10;;;;;;4373823;32;20173;-61
2021/04/06 12:44:34;;;;;;;10.70;2.20;;;4.70;92.90;;;;;;4368239;32;20549;-60
2021/04/06 12:47:02;;;;;;;8.07;2.10;;;5.20;91.70;;;;;;4369778;32;20536;-61
2021/04/06 12:49:28;;;;;;;9.33;1.67;;;4.80;91.50;;;;;;4370614;32;20596;-61
2021/04/06 12:51:56;;;;;;;13.63;2.30;;;4.40;92.10;;;;;;4368413;32;20252;-60
2021/04/06 12:54:22;;;;;;;13.47;2.30;;;4.50;93.00;;;;;;4362790;32;20184;-60
2021/04/06 12:56:48;;;;;;;12.50;1.80;;;4.80;92.20;;;;;;4367594;32;20216;-61
2021/04/06 12:59:15;;;;;;;5.10;1.40;;;5.40;90.30;;;;;;4373079;32;20156;-60
2021/04/06 13:01:41;;;;;;;3.67;1.87;;;6.10;88.10;;;;;;4365902;32;20183;-60
2021/04/06 13:04:07;;;;;;;8.90;2.17;;;5.90;81.10;;;;;;4368644;32;20158;-64
2021/04/06 13:06:36;;;;;;;6.97;1.67;;;5.60;80.20;;;;;;4371014;32;20167;-62
2021/04/06 13:09:04;;;;;;;7.03;1.97;;;5.30;83.20;;;;;;4367761;32;20156;-63